sensor_id;sensor_type;location;lat;lon;timestamp;pressure;altitude;pressure_sealevel;temperature;humidity
40117;BME280;25829;50.228;18.936;2023-03-19T00:00:49;98674.53;;;1.36;50.34
40117;BME280;25829;50.228;18.936;2023-03-19T00:03:53;98682.16;;;1.38;51.04
40117;BME280;25829;50.228;18.936;2023-03-19T00:06:54;98687.09;;;1.41;50.70
40117;BME280;25829;50.228;18.936;2023-03-19T00:09:55;98676.56;;;1.42;50.94
40117;BME280;25829;50.228;18.936;2023-03-19T00:12:56;98680.78;;;1.43;51.26
40117;BME280;25829;50.228;18.936;2023-03-19T00:15:59;98679.16;;;1.42;51.27
40117;BME280;25829;50.228;18.936;2023-03-19T00:19:01;98679.81;;;1.44;51.33
40117;BME280;25829;50.228;18.936;2023-03-19T00:22:02;98676.13;;;1.47;51.34
40117;BME280;25829;50.228;18.936;2023-03-19T00:25:03;98673.69;;;1.45;51.05
40117;BME280;25829;50.228;18.936;2023-03-19T00:28:03;98676.69;;;1.41;50.84
40117;BME280;25829;50.228;18.936;2023-03-19T00:31:13;98668.81;;;1.33;50.67
40117;BME280;25829;50.228;18.936;2023-03-19T00:34:14;98680.16;;;1.31;51.06
40117;BME280;25829;50.228;18.936;2023-03-19T00:37:18;98674.97;;;1.31;51.22
40117;BME280;25829;50.228;18.936;2023-03-19T00:40:18;98677.56;;;1.31;51.24
40117;BME280;25829;50.228;18.936;2023-03-19T00:43:19;98663.75;;;1.31;51.49
40117;BME280;25829;50.228;18.936;2023-03-19T00:46:30;98663.75;;;1.31;51.19
40117;BME280;25829;50.228;18.936;2023-03-19T00:49:37;98659.38;;;1.31;51.14
40117;BME280;25829;50.228;18.936;2023-03-19T00:52:44;98663.97;;;1.38;50.89
40117;BME280;25829;50.228;18.936;2023-03-19T00:55:45;98664.09;;;1.46;50.91
40117;BME280;25829;50.228;18.936;2023-03-19T00:58:46;98662.84;;;1.50;50.48
40117;BME280;25829;50.228;18.936;2023-03-19T01:01:48;98670.91;;;1.47;50.53
40117;BME280;25829;50.228;18.936;2023-03-19T01:05:04;98672.84;;;1.45;50.95
40117;BME280;25829;50.228;18.936;2023-03-19T01:08:05;98668.06;;;1.40;50.50
40117;BME280;25829;50.228;18.936;2023-03-19T01:11:14;98664.09;;;1.46;51.19
40117;BME280;25829;50.228;18.936;2023-03-19T01:14:16;98670.34;;;1.53;50.41
40117;BME280;25829;50.228;18.936;2023-03-19T01:17:17;98670.91;;;1.47;50.91
40117;BME280;25829;50.228;18.936;2023-03-19T01:20:27;98667.25;;;1.40;51.01
40117;BME280;25829;50.228;18.936;2023-03-19T01:23:34;98669.34;;;1.36;50.63
40117;BME280;25829;50.228;18.936;2023-03-19T01:26:35;98668.81;;;1.33;51.19
40117;BME280;25829;50.228;18.936;2023-03-19T01:29:49;98681.16;;;1.21;51.28
40117;BME280;25829;50.228;18.936;2023-03-19T01:33:09;98671.06;;;1.18;51.03
40117;BME280;25829;50.228;18.936;2023-03-19T01:36:48;98680.47;;;1.19;51.12
40117;BME280;25829;50.228;18.936;2023-03-19T01:40:14;98664.69;;;1.30;51.44
40117;BME280;25829;50.228;18.936;2023-03-19T01:43:30;98667.09;;;1.41;51.74
40117;BME280;25829;50.228;18.936;2023-03-19T01:47:36;98663.94;;;1.47;51.42
40117;BME280;25829;50.228;18.936;2023-03-19T01:50:58;98666.13;;;1.52;51.48
40117;BME280;25829;50.228;18.936;2023-03-19T01:54:21;98663.53;;;1.52;51.70
40117;BME280;25829;50.228;18.936;2023-03-19T01:57:42;98666.25;;;1.50;51.69
40117;BME280;25829;50.228;18.936;2023-03-19T02:01:13;98665.44;;;1.50;51.35
40117;BME280;25829;50.228;18.936;2023-03-19T02:04:30;98666.41;;;1.49;51.48
40117;BME280;25829;50.228;18.936;2023-03-19T02:07:40;98662.44;;;1.45;50.67
40117;BME280;25829;50.228;18.936;2023-03-19T02:10:53;98660.56;;;1.37;51.65
40117;BME280;25829;50.228;18.936;2023-03-19T02:13:55;98663.84;;;1.39;51.08
40117;BME280;25829;50.228;18.936;2023-03-19T02:17:05;98656.19;;;1.38;51.18
40117;BME280;25829;50.228;18.936;2023-03-19T02:24:07;98667.03;;;1.23;51.26
40117;BME280;25829;50.228;18.936;2023-03-19T02:27:34;98675.44;;;1.17;51.01
40117;BME280;25829;50.228;18.936;2023-03-19T02:30:38;98671.34;;;1.15;51.63
40117;BME280;25829;50.228;18.936;2023-03-19T02:34:14;98680.19;;;1.22;51.74
40117;BME280;25829;50.228;18.936;2023-03-19T02:37:37;98686.38;;;1.21;51.92
40117;BME280;25829;50.228;18.936;2023-03-19T02:44:16;98690.88;;;1.19;52.61
40117;BME280;25829;50.228;18.936;2023-03-19T02:47:23;98686.50;;;1.10;52.38
40117;BME280;25829;50.228;18.936;2023-03-19T02:50:34;98695.97;;;1.11;52.20
40117;BME280;25829;50.228;18.936;2023-03-19T02:53:35;98693.78;;;1.06;52.31
40117;BME280;25829;50.228;18.936;2023-03-19T02:56:36;98694.75;;;1.05;52.74
40117;BME280;25829;50.228;18.936;2023-03-19T02:59:39;98693.50;;;0.99;52.71
40117;BME280;25829;50.228;18.936;2023-03-19T03:02:40;98702.28;;;0.98;52.56
40117;BME280;25829;50.228;18.936;2023-03-19T03:05:50;98693.13;;;0.94;52.54
40117;BME280;25829;50.228;18.936;2023-03-19T03:08:51;98712.56;;;0.90;52.35
40117;BME280;25829;50.228;18.936;2023-03-19T03:11:57;98708.19;;;0.91;52.80
40117;BME280;25829;50.228;18.936;2023-03-19T03:15:25;98711.19;;;0.86;52.65
40117;BME280;25829;50.228;18.936;2023-03-19T03:18:29;98704.63;;;0.82;52.68
40117;BME280;25829;50.228;18.936;2023-03-19T03:21:52;98698.75;;;0.80;52.98
40117;BME280;25829;50.228;18.936;2023-03-19T03:24:53;98713.00;;;0.76;53.06
40117;BME280;25829;50.228;18.936;2023-03-19T03:27:54;98700.28;;;0.73;53.46
40117;BME280;25829;50.228;18.936;2023-03-19T03:30:58;98706.56;;;0.70;53.66
40117;BME280;25829;50.228;18.936;2023-03-19T03:34:01;98701.91;;;0.64;53.44
40117;BME280;25829;50.228;18.936;2023-03-19T03:37:03;98710.41;;;0.66;53.33
40117;BME280;25829;50.228;18.936;2023-03-19T03:40:14;98700.94;;;0.65;53.35
40117;BME280;25829;50.228;18.936;2023-03-19T03:43:15;98704.50;;;0.64;53.24
40117;BME280;25829;50.228;18.936;2023-03-19T03:46:19;98705.59;;;0.62;53.27
40117;BME280;25829;50.228;18.936;2023-03-19T03:49:26;98701.53;;;0.59;53.54
40117;BME280;25829;50.228;18.936;2023-03-19T03:52:39;98702.75;;;0.55;54.06
40117;BME280;25829;50.228;18.936;2023-03-19T03:55:53;98707.25;;;0.53;54.41
40117;BME280;25829;50.228;18.936;2023-03-19T03:59:00;98701.66;;;0.48;53.84
40117;BME280;25829;50.228;18.936;2023-03-19T04:02:01;98694.97;;;0.45;53.82
40117;BME280;25829;50.228;18.936;2023-03-19T04:05:04;98693.47;;;0.43;53.35
40117;BME280;25829;50.228;18.936;2023-03-19T04:08:05;98697.16;;;0.40;53.58
40117;BME280;25829;50.228;18.936;2023-03-19T04:11:26;98705.91;;;0.39;53.87
40117;BME280;25829;50.228;18.936;2023-03-19T04:14:34;98703.72;;;0.34;53.90
40117;BME280;25829;50.228;18.936;2023-03-19T04:17:35;98705.88;;;0.29;53.94
40117;BME280;25829;50.228;18.936;2023-03-19T04:20:36;98701.78;;;0.27;54.07
40117;BME280;25829;50.228;18.936;2023-03-19T04:23:37;98700.97;;;0.26;54.41
40117;BME280;25829;50.228;18.936;2023-03-19T04:26:38;98706.84;;;0.28;54.25
40117;BME280;25829;50.228;18.936;2023-03-19T04:29:39;98705.06;;;0.29;54.38
40117;BME280;25829;50.228;18.936;2023-03-19T04:32:41;98698.25;;;0.28;54.49
40117;BME280;25829;50.228;18.936;2023-03-19T04:35:44;98699.47;;;0.24;54.36
40117;BME280;25829;50.228;18.936;2023-03-19T04:38:51;98696.34;;;0.20;54.72
40117;BME280;25829;50.228;18.936;2023-03-19T04:41:55;98692.50;;;0.15;54.38
40117;BME280;25829;50.228;18.936;2023-03-19T04:45:04;98693.84;;;0.09;55.30
40117;BME280;25829;50.228;18.936;2023-03-19T04:48:08;98698.38;;;0.07;55.23
40117;BME280;25829;50.228;18.936;2023-03-19T04:51:13;98700.81;;;0.08;55.58
40117;BME280;25829;50.228;18.936;2023-03-19T04:54:15;98702.59;;;0.08;55.56
40117;BME280;25829;50.228;18.936;2023-03-19T04:57:18;98699.19;;;0.07;55.58
40117;BME280;25829;50.228;18.936;2023-03-19T05:00:21;98695.91;;;0.05;55.80
40117;BME280;25829;50.228;18.936;2023-03-19T05:03:23;98698.50;;;0.05;55.59
40117;BME280;25829;50.228;18.936;2023-03-19T05:06:36;98693.44;;;0.04;55.76
40117;BME280;25829;50.228;18.936;2023-03-19T05:09:44;98689.91;;;0.05;55.77
40117;BME280;25829;50.228;18.936;2023-03-19T05:12:46;98693.19;;;0.07;55.62
40117;BME280;25829;50.228;18.936;2023-03-19T05:15:48;98692.22;;;0.08;55.18
40117;BME280;25829;50.228;18.936;2023-03-19T05:19:01;98692.63;;;0.03;55.48
40117;BME280;25829;50.228;18.936;2023-03-19T05:22:04;98699.44;;;0.04;55.42
40117;BME280;25829;50.228;18.936;2023-03-19T05:25:06;98702.59;;;0.08;55.74
40117;BME280;25829;50.228;18.936;2023-03-19T05:28:07;98702.31;;;0.11;56.10
40117;BME280;25829;50.228;18.936;2023-03-19T05:31:11;98702.06;;;0.14;55.96
40117;BME280;25829;50.228;18.936;2023-03-19T05:34:19;98709.44;;;0.19;55.87
40117;BME280;25829;50.228;18.936;2023-03-19T05:37:21;98698.63;;;0.23;56.27
40117;BME280;25829;50.228;18.936;2023-03-19T05:40:35;98696.19;;;0.31;56.05
40117;BME280;25829;50.228;18.936;2023-03-19T05:43:48;98701.53;;;0.40;55.88
40117;BME280;25829;50.228;18.936;2023-03-19T05:50:35;98702.50;;;0.48;55.82
40117;BME280;25829;50.228;18.936;2023-03-19T05:53:53;98715.16;;;0.61;56.19
40117;BME280;25829;50.228;18.936;2023-03-19T05:57:15;98709.00;;;0.72;56.44
40117;BME280;25829;50.228;18.936;2023-03-19T06:00:36;98711.31;;;0.84;56.55
40117;BME280;25829;50.228;18.936;2023-03-19T06:03:38;98715.41;;;0.97;56.33
40117;BME280;25829;50.228;18.936;2023-03-19T06:06:45;98705.66;;;1.08;56.29
40117;BME280;25829;50.228;18.936;2023-03-19T06:09:46;98704.41;;;1.22;56.00
40117;BME280;25829;50.228;18.936;2023-03-19T06:12:47;98716.81;;;1.38;56.29
40117;BME280;25829;50.228;18.936;2023-03-19T06:16:03;98704.81;;;1.55;56.26
40117;BME280;25829;50.228;18.936;2023-03-19T06:19:15;98710.38;;;1.70;56.30
40117;BME280;25829;50.228;18.936;2023-03-19T06:22:16;98708.09;;;1.85;55.98
40117;BME280;25829;50.228;18.936;2023-03-19T06:25:50;98703.59;;;2.05;55.95
40117;BME280;25829;50.228;18.936;2023-03-19T06:28:56;98709.09;;;2.19;55.40
40117;BME280;25829;50.228;18.936;2023-03-19T06:32:00;98707.31;;;2.38;55.14
40117;BME280;25829;50.228;18.936;2023-03-19T06:35:21;98706.72;;;2.62;55.28
40117;BME280;25829;50.228;18.936;2023-03-19T06:38:23;98721.06;;;2.84;55.39
40117;BME280;25829;50.228;18.936;2023-03-19T06:41:30;98716.97;;;3.07;54.94
40117;BME280;25829;50.228;18.936;2023-03-19T06:44:42;98720.56;;;3.32;54.55
40117;BME280;25829;50.228;18.936;2023-03-19T06:47:43;98710.28;;;3.57;54.60
40117;BME280;25829;50.228;18.936;2023-03-19T06:50:47;98710.22;;;3.83;54.44
40117;BME280;25829;50.228;18.936;2023-03-19T06:53:48;98715.19;;;4.10;53.88
40117;BME280;25829;50.228;18.936;2023-03-19T06:56:52;98712.66;;;4.43;53.04
40117;BME280;25829;50.228;18.936;2023-03-19T06:59:53;98714.59;;;4.74;52.07
40117;BME280;25829;50.228;18.936;2023-03-19T07:02:56;98713.94;;;5.04;51.71
40117;BME280;25829;50.228;18.936;2023-03-19T07:05:57;98713.06;;;5.36;51.10
40117;BME280;25829;50.228;18.936;2023-03-19T07:09:04;98695.63;;;5.68;50.57
40117;BME280;25829;50.228;18.936;2023-03-19T07:12:17;98706.94;;;6.00;50.60
40117;BME280;25829;50.228;18.936;2023-03-19T07:15:21;98708.75;;;6.22;50.04
40117;BME280;25829;50.228;18.936;2023-03-19T07:18:21;98706.84;;;6.39;49.40
40117;BME280;25829;50.228;18.936;2023-03-19T07:21:22;98713.00;;;6.54;49.00
40117;BME280;25829;50.228;18.936;2023-03-19T07:24:23;98707.78;;;6.69;48.75
40117;BME280;25829;50.228;18.936;2023-03-19T07:27:32;98706.66;;;6.87;48.78
40117;BME280;25829;50.228;18.936;2023-03-19T07:30:33;98712.81;;;6.94;48.43
40117;BME280;25829;50.228;18.936;2023-03-19T07:33:35;98716.81;;;7.05;48.54
40117;BME280;25829;50.228;18.936;2023-03-19T07:36:35;98714.41;;;7.18;48.41
40117;BME280;25829;50.228;18.936;2023-03-19T07:39:36;98719.75;;;7.39;48.43
40117;BME280;25829;50.228;18.936;2023-03-19T07:42:37;98717.84;;;7.63;48.09
40117;BME280;25829;50.228;18.936;2023-03-19T07:45:38;98716.06;;;7.78;46.80
40117;BME280;25829;50.228;18.936;2023-03-19T07:48:44;98704.97;;;7.97;46.56
40117;BME280;25829;50.228;18.936;2023-03-19T07:51:51;98711.44;;;8.16;46.81
40117;BME280;25829;50.228;18.936;2023-03-19T08:30:48;98690.81;;;9.34;45.24
40117;BME280;25829;50.228;18.936;2023-03-19T08:41:09;98686.38;;;9.82;44.44
40117;BME280;25829;50.228;18.936;2023-03-19T08:44:21;98688.66;;;9.92;44.00
40117;BME280;25829;50.228;18.936;2023-03-19T08:57:35;98687.38;;;10.49;42.64
40117;BME280;25829;50.228;18.936;2023-03-19T09:00:48;98680.47;;;10.62;42.58
40117;BME280;25829;50.228;18.936;2023-03-19T09:04:01;98673.78;;;10.72;41.38
40117;BME280;25829;50.228;18.936;2023-03-19T09:07:47;98690.03;;;10.82;42.33
40117;BME280;25829;50.228;18.936;2023-03-19T09:11:03;98689.03;;;10.90;41.55
40117;BME280;25829;50.228;18.936;2023-03-19T09:14:04;98693.72;;;10.95;41.42
40117;BME280;25829;50.228;18.936;2023-03-19T09:17:11;98679.88;;;10.99;41.66
40117;BME280;25829;50.228;18.936;2023-03-19T09:20:37;98693.69;;;11.08;42.18
40117;BME280;25829;50.228;18.936;2023-03-19T09:23:38;98688.59;;;11.20;41.98
40117;BME280;25829;50.228;18.936;2023-03-19T09:26:44;98689.16;;;11.35;42.40
40117;BME280;25829;50.228;18.936;2023-03-19T09:29:45;98683.84;;;11.48;42.23
40117;BME280;25829;50.228;18.936;2023-03-19T09:32:46;98686.25;;;11.63;42.24
40117;BME280;25829;50.228;18.936;2023-03-19T09:36:15;98686.56;;;11.87;41.08
40117;BME280;25829;50.228;18.936;2023-03-19T09:40:05;98677.50;;;12.14;40.40
40117;BME280;25829;50.228;18.936;2023-03-19T09:44:13;98674.91;;;12.39;39.67
40117;BME280;25829;50.228;18.936;2023-03-19T09:48:17;98670.59;;;12.45;37.48
40117;BME280;25829;50.228;18.936;2023-03-19T09:52:01;98670.06;;;12.36;36.45
40117;BME280;25829;50.228;18.936;2023-03-19T10:03:21;98670.34;;;12.78;39.49
40117;BME280;25829;50.228;18.936;2023-03-19T10:19:24;98650.50;;;14.58;38.46
40117;BME280;25829;50.228;18.936;2023-03-19T10:34:56;98628.25;;;14.82;35.25
40117;BME280;25829;50.228;18.936;2023-03-19T10:38:28;98622.09;;;14.58;35.27
40117;BME280;25829;50.228;18.936;2023-03-19T10:41:49;98632.13;;;14.45;36.83
40117;BME280;25829;50.228;18.936;2023-03-19T10:45:37;98614.22;;;14.40;36.67
40117;BME280;25829;50.228;18.936;2023-03-19T10:52:34;98611.25;;;14.18;36.61
40117;BME280;25829;50.228;18.936;2023-03-19T10:55:55;98613.03;;;14.24;35.96
40117;BME280;25829;50.228;18.936;2023-03-19T10:59:03;98614.88;;;14.24;37.00
40117;BME280;25829;50.228;18.936;2023-03-19T11:02:21;98602.19;;;14.26;36.06
40117;BME280;25829;50.228;18.936;2023-03-19T11:09:41;98590.97;;;14.24;36.57
40117;BME280;25829;50.228;18.936;2023-03-19T11:13:11;98594.88;;;14.21;37.00
40117;BME280;25829;50.228;18.936;2023-03-19T11:16:17;98587.16;;;14.20;37.35
40117;BME280;25829;50.228;18.936;2023-03-19T11:19:26;98590.03;;;14.18;35.92
40117;BME280;25829;50.228;18.936;2023-03-19T11:22:41;98567.50;;;14.09;34.51
40117;BME280;25829;50.228;18.936;2023-03-19T11:25:53;98575.25;;;13.99;35.10
40117;BME280;25829;50.228;18.936;2023-03-19T11:29:03;98571.84;;;13.91;36.37
40117;BME280;25829;50.228;18.936;2023-03-19T11:42:35;98547.56;;;14.06;35.53
40117;BME280;25829;50.228;18.936;2023-03-19T11:55:55;98526.22;;;14.01;36.48
40117;BME280;25829;50.228;18.936;2023-03-19T12:06:00;98517.44;;;14.01;34.29
40117;BME280;25829;50.228;18.936;2023-03-19T12:09:39;98517.81;;;14.04;35.66
40117;BME280;25829;50.228;18.936;2023-03-19T12:20:28;98518.34;;;13.83;34.88
40117;BME280;25829;50.228;18.936;2023-03-19T12:27:44;98503.72;;;13.92;35.51
40117;BME280;25829;50.228;18.936;2023-03-19T12:30:48;98504.28;;;13.94;35.57
40117;BME280;25829;50.228;18.936;2023-03-19T12:46:51;98481.75;;;14.27;35.29
40117;BME280;25829;50.228;18.936;2023-03-19T12:50:00;98484.84;;;14.35;35.64
40117;BME280;25829;50.228;18.936;2023-03-19T12:53:06;98489.59;;;14.45;36.19
40117;BME280;25829;50.228;18.936;2023-03-19T12:59:32;98480.47;;;14.53;35.67
40117;BME280;25829;50.228;18.936;2023-03-19T13:12:31;98484.63;;;14.49;35.03
40117;BME280;25829;50.228;18.936;2023-03-19T13:15:46;98480.25;;;14.54;35.38
40117;BME280;25829;50.228;18.936;2023-03-19T13:22:38;98485.41;;;14.61;36.06
40117;BME280;25829;50.228;18.936;2023-03-19T13:25:47;98481.03;;;14.67;35.78
40117;BME280;25829;50.228;18.936;2023-03-19T13:35:48;98484.47;;;14.67;35.71
40117;BME280;25829;50.228;18.936;2023-03-19T13:38:50;98468.56;;;14.67;36.05
40117;BME280;25829;50.228;18.936;2023-03-19T13:41:56;98477.09;;;14.69;36.12
40117;BME280;25829;50.228;18.936;2023-03-19T13:45:03;98468.34;;;14.69;35.17
40117;BME280;25829;50.228;18.936;2023-03-19T13:51:28;98450.44;;;14.64;35.83
40117;BME280;25829;50.228;18.936;2023-03-19T13:54:38;98460.03;;;14.65;35.70
40117;BME280;25829;50.228;18.936;2023-03-19T13:57:39;98448.22;;;14.61;36.02
40117;BME280;25829;50.228;18.936;2023-03-19T14:04:03;98447.34;;;14.55;35.63
40117;BME280;25829;50.228;18.936;2023-03-19T14:07:11;98442.50;;;14.52;36.25
40117;BME280;25829;50.228;18.936;2023-03-19T14:10:28;98444.81;;;14.49;35.77
40117;BME280;25829;50.228;18.936;2023-03-19T14:13:46;98439.97;;;14.46;36.06
40117;BME280;25829;50.228;18.936;2023-03-19T14:16:48;98432.38;;;14.37;36.23
40117;BME280;25829;50.228;18.936;2023-03-19T14:23:40;98433.63;;;14.35;35.18
40117;BME280;25829;50.228;18.936;2023-03-19T14:27:01;98436.53;;;14.33;36.35
40117;BME280;25829;50.228;18.936;2023-03-19T14:31:01;98432.59;;;14.36;36.26
40117;BME280;25829;50.228;18.936;2023-03-19T14:58:21;98438.56;;;14.43;35.97
40117;BME280;25829;50.228;18.936;2023-03-19T15:01:23;98434.78;;;14.39;36.90
40117;BME280;25829;50.228;18.936;2023-03-19T15:04:43;98427.28;;;14.36;35.86
40117;BME280;25829;50.228;18.936;2023-03-19T15:08:11;98429.94;;;14.36;36.14
40117;BME280;25829;50.228;18.936;2023-03-19T15:19:52;98429.72;;;14.26;36.27
40117;BME280;25829;50.228;18.936;2023-03-19T15:23:16;98432.00;;;14.22;36.76
40117;BME280;25829;50.228;18.936;2023-03-19T15:30:37;98432.94;;;14.16;37.13
40117;BME280;25829;50.228;18.936;2023-03-19T15:38:12;98436.50;;;14.10;36.91
40117;BME280;25829;50.228;18.936;2023-03-19T15:59:28;98433.34;;;13.78;37.42
40117;BME280;25829;50.228;18.936;2023-03-19T16:03:03;98441.78;;;13.75;36.86
40117;BME280;25829;50.228;18.936;2023-03-19T16:06:46;98446.94;;;13.70;37.56
40117;BME280;25829;50.228;18.936;2023-03-19T16:10:34;98439.91;;;13.63;37.43
40117;BME280;25829;50.228;18.936;2023-03-19T16:26:42;98456.31;;;13.30;38.14
40117;BME280;25829;50.228;18.936;2023-03-19T16:30:03;98451.31;;;13.22;38.42
40117;BME280;25829;50.228;18.936;2023-03-19T16:34:41;98451.84;;;13.12;38.59
40117;BME280;25829;50.228;18.936;2023-03-19T16:38:42;98458.53;;;12.96;38.86
40117;BME280;25829;50.228;18.936;2023-03-19T16:42:31;98461.72;;;12.87;39.19
40117;BME280;25829;50.228;18.936;2023-03-19T16:53:51;98471.78;;;12.41;40.29
40117;BME280;25829;50.228;18.936;2023-03-19T16:57:02;98467.22;;;12.30;40.51
40117;BME280;25829;50.228;18.936;2023-03-19T17:00:18;98474.41;;;12.23;40.81
40117;BME280;25829;50.228;18.936;2023-03-19T17:03:27;98474.53;;;12.10;41.38
40117;BME280;25829;50.228;18.936;2023-03-19T17:06:29;98480.13;;;11.95;41.43
40117;BME280;25829;50.228;18.936;2023-03-19T17:09:34;98493.19;;;11.83;41.99
40117;BME280;25829;50.228;18.936;2023-03-19T17:13:08;98491.25;;;11.72;42.11
40117;BME280;25829;50.228;18.936;2023-03-19T17:16:32;98495.44;;;11.54;42.41
40117;BME280;25829;50.228;18.936;2023-03-19T17:19:35;98498.38;;;11.40;42.11
40117;BME280;25829;50.228;18.936;2023-03-19T17:26:24;98498.75;;;11.05;42.85
40117;BME280;25829;50.228;18.936;2023-03-19T17:29:30;98502.22;;;10.92;43.04
40117;BME280;25829;50.228;18.936;2023-03-19T17:32:30;98508.75;;;10.83;43.29
40117;BME280;25829;50.228;18.936;2023-03-19T17:35:31;98502.09;;;10.74;43.59
40117;BME280;25829;50.228;18.936;2023-03-19T17:38:33;98509.59;;;10.64;43.78
40117;BME280;25829;50.228;18.936;2023-03-19T17:45:36;98509.63;;;10.37;44.21
40117;BME280;25829;50.228;18.936;2023-03-19T17:48:37;98512.50;;;10.22;44.47
40117;BME280;25829;50.228;18.936;2023-03-19T17:51:38;98518.78;;;10.08;44.77
40117;BME280;25829;50.228;18.936;2023-03-19T17:54:39;98511.47;;;9.97;45.18
40117;BME280;25829;50.228;18.936;2023-03-19T17:57:40;98518.38;;;9.84;45.64
40117;BME280;25829;50.228;18.936;2023-03-19T18:00:41;98513.88;;;9.72;45.73
40117;BME280;25829;50.228;18.936;2023-03-19T18:03:42;98511.63;;;9.62;45.95
40117;BME280;25829;50.228;18.936;2023-03-19T18:06:46;98516.47;;;9.52;45.89
40117;BME280;25829;50.228;18.936;2023-03-19T18:09:48;98521.34;;;9.42;46.23
40117;BME280;25829;50.228;18.936;2023-03-19T18:12:49;98520.03;;;9.31;46.47
40117;BME280;25829;50.228;18.936;2023-03-19T18:15:51;98520.03;;;9.24;46.60
40117;BME280;25829;50.228;18.936;2023-03-19T18:18:53;98527.69;;;9.19;46.78
40117;BME280;25829;50.228;18.936;2023-03-19T18:22:11;98533.31;;;9.09;47.06
40117;BME280;25829;50.228;18.936;2023-03-19T18:25:18;98535.47;;;8.92;47.32
40117;BME280;25829;50.228;18.936;2023-03-19T18:28:22;98532.78;;;8.79;47.35
40117;BME280;25829;50.228;18.936;2023-03-19T18:31:23;98544.47;;;8.70;47.79
40117;BME280;25829;50.228;18.936;2023-03-19T18:34:26;98543.97;;;8.60;48.19
40117;BME280;25829;50.228;18.936;2023-03-19T18:37:27;98535.00;;;8.48;48.14
40117;BME280;25829;50.228;18.936;2023-03-19T18:40:31;98535.53;;;8.36;48.49
40117;BME280;25829;50.228;18.936;2023-03-19T18:43:32;98540.72;;;8.30;48.49
40117;BME280;25829;50.228;18.936;2023-03-19T18:46:37;98549.00;;;8.27;48.20
40117;BME280;25829;50.228;18.936;2023-03-19T18:49:39;98548.38;;;8.25;48.50
40117;BME280;25829;50.228;18.936;2023-03-19T18:52:40;98545.88;;;8.16;49.06
40117;BME280;25829;50.228;18.936;2023-03-19T18:55:41;98547.22;;;8.06;49.20
40117;BME280;25829;50.228;18.936;2023-03-19T18:58:43;98550.97;;;7.96;49.46
40117;BME280;25829;50.228;18.936;2023-03-19T19:01:43;98551.72;;;7.90;49.48
40117;BME280;25829;50.228;18.936;2023-03-19T19:04:44;98545.41;;;7.85;49.18
40117;BME280;25829;50.228;18.936;2023-03-19T19:07:45;98545.16;;;7.80;49.70
40117;BME280;25829;50.228;18.936;2023-03-19T19:10:54;98555.56;;;7.73;49.62
40117;BME280;25829;50.228;18.936;2023-03-19T19:13:57;98552.88;;;7.66;50.09
40117;BME280;25829;50.228;18.936;2023-03-19T19:16:59;98557.41;;;7.58;50.15
40117;BME280;25829;50.228;18.936;2023-03-19T19:19:59;98559.16;;;7.50;50.10
40117;BME280;25829;50.228;18.936;2023-03-19T19:23:00;98555.91;;;7.48;50.52
40117;BME280;25829;50.228;18.936;2023-03-19T19:26:01;98566.16;;;7.43;50.53
40117;BME280;25829;50.228;18.936;2023-03-19T19:29:03;98558.19;;;7.37;50.56
40117;BME280;25829;50.228;18.936;2023-03-19T19:32:14;98558.75;;;7.32;50.77
40117;BME280;25829;50.228;18.936;2023-03-19T19:35:27;98558.22;;;7.22;50.89
40117;BME280;25829;50.228;18.936;2023-03-19T19:38:28;98563.03;;;7.18;50.71
40117;BME280;25829;50.228;18.936;2023-03-19T19:42:04;98555.16;;;7.18;51.38
40117;BME280;25829;50.228;18.936;2023-03-19T19:45:32;98561.94;;;7.13;50.87
40117;BME280;25829;50.228;18.936;2023-03-19T19:48:38;98563.06;;;7.03;51.61
40117;BME280;25829;50.228;18.936;2023-03-19T19:51:41;98562.16;;;6.96;51.10
40117;BME280;25829;50.228;18.936;2023-03-19T19:54:43;98547.13;;;6.90;51.43
40117;BME280;25829;50.228;18.936;2023-03-19T19:57:44;98556.81;;;6.90;51.56
40117;BME280;25829;50.228;18.936;2023-03-19T20:00:45;98559.16;;;6.85;52.03
40117;BME280;25829;50.228;18.936;2023-03-19T20:03:47;98559.91;;;6.78;51.95
40117;BME280;25829;50.228;18.936;2023-03-19T20:06:48;98561.63;;;6.71;52.46
40117;BME280;25829;50.228;18.936;2023-03-19T20:09:50;98567.38;;;6.67;51.86
40117;BME280;25829;50.228;18.936;2023-03-19T20:12:53;98559.50;;;6.67;52.62
40117;BME280;25829;50.228;18.936;2023-03-19T20:15:56;98558.91;;;6.65;52.34
40117;BME280;25829;50.228;18.936;2023-03-19T20:18:57;98559.41;;;6.60;52.68
40117;BME280;25829;50.228;18.936;2023-03-19T20:21:58;98562.94;;;6.52;52.17
40117;BME280;25829;50.228;18.936;2023-03-19T20:24:59;98559.06;;;6.48;52.46
40117;BME280;25829;50.228;18.936;2023-03-19T20:28:00;98571.84;;;6.43;52.42
40117;BME280;25829;50.228;18.936;2023-03-19T20:31:03;98559.31;;;6.39;52.69
40117;BME280;25829;50.228;18.936;2023-03-19T20:34:04;98574.56;;;6.35;53.25
40117;BME280;25829;50.228;18.936;2023-03-19T20:37:05;98570.47;;;6.32;53.07
40117;BME280;25829;50.228;18.936;2023-03-19T20:40:06;98568.06;;;6.31;52.93
40117;BME280;25829;50.228;18.936;2023-03-19T20:43:37;98567.59;;;6.27;53.54
40117;BME280;25829;50.228;18.936;2023-03-19T20:46:37;98582.41;;;6.20;53.78
40117;BME280;25829;50.228;18.936;2023-03-19T20:49:38;98576.50;;;6.18;53.43
40117;BME280;25829;50.228;18.936;2023-03-19T20:52:39;98572.41;;;6.16;53.38
40117;BME280;25829;50.228;18.936;2023-03-19T20:55:41;98570.81;;;6.15;53.23
40117;BME280;25829;50.228;18.936;2023-03-19T20:58:43;98576.03;;;6.15;53.45
40117;BME280;25829;50.228;18.936;2023-03-19T21:01:48;98564.28;;;6.11;53.56
40117;BME280;25829;50.228;18.936;2023-03-19T21:04:48;98561.38;;;6.05;53.31
40117;BME280;25829;50.228;18.936;2023-03-19T21:07:51;98565.22;;;5.95;53.76
40117;BME280;25829;50.228;18.936;2023-03-19T21:10:52;98572.66;;;5.83;54.24
40117;BME280;25829;50.228;18.936;2023-03-19T21:13:56;98566.00;;;5.72;54.51
40117;BME280;25829;50.228;18.936;2023-03-19T21:16:58;98567.16;;;5.70;54.10
40117;BME280;25829;50.228;18.936;2023-03-19T21:19:59;98567.34;;;5.68;54.10